Time;durP1;ratioP1;P1;durP2;ratioP2;P2;SDS_P1;SDS_P2;PMS_P1;PMS_P2;Temp;Humidity;BMP_temperature;BMP_pressure;BME280_temperature;BME280_humidity;BME280_pressure;Samples;Min_cycle;Max_cycle;Signal;HPM_P1;HPM_P2
2022/01/07 00:01:45;;;;;;;15.67;6.27;;;3.50;99.90;;;;;;5074218;28;20408;-59
2022/01/07 00:04:11;;;;;;;18.47;5.50;;;3.50;99.90;;;;;;5090386;28;20068;-59
2022/01/07 00:06:36;;;;;;;14.80;5.63;;;3.50;99.90;;;;;;5089761;28;20028;-58
2022/01/07 00:09:02;;;;;;;16.30;4.90;;;3.60;99.90;;;;;;5089751;28;20075;-58
2022/01/07 00:11:28;;;;;;;11.43;4.93;;;3.60;99.90;;;;;;5071852;28;20115;-60
2022/01/07 00:13:54;;;;;;;14.43;5.83;;;3.60;99.90;;;;;;5090435;28;20044;-59
2022/01/07 00:16:19;;;;;;;16.00;4.90;;;3.60;99.90;;;;;;5089880;28;20476;-59
2022/01/07 00:18:45;;;;;;;14.10;6.03;;;3.70;99.90;;;;;;5090118;28;20044;-58
2022/01/07 00:21:11;;;;;;;14.10;4.40;;;3.70;99.90;;;;;;5090183;28;20127;-58
2022/01/07 00:23:38;;;;;;;8.80;4.43;;;3.70;99.90;;;;;;5090635;28;20157;-58
2022/01/07 00:26:04;;;;;;;;;;;3.70;99.90;;;;;;5091700;28;20036;-58
2022/01/07 00:28:29;;;;;;;13.15;5.07;;;3.70;99.90;;;;;;5064152;28;19924;-59
2022/01/07 00:30:55;;;;;;;17.03;5.43;;;3.70;99.90;;;;;;5091417;28;20151;-59
2022/01/07 00:33:21;;;;;;;17.08;5.13;;;3.70;99.90;;;;;;5100568;28;20278;-59
2022/01/07 00:35:47;;;;;;;16.95;5.55;;;3.70;99.90;;;;;;5100614;28;20035;-59
2022/01/07 00:38:12;;;;;;;13.87;5.23;;;3.70;99.90;;;;;;5098262;28;20160;-58
2022/01/07 00:40:38;;;;;;;12.93;4.20;;;3.60;99.90;;;;;;5068868;28;20031;-58
2022/01/07 00:43:04;;;;;;;16.67;4.80;;;3.60;99.90;;;;;;5097199;28;20289;-58
2022/01/07 00:45:31;;;;;;;16.15;4.90;;;3.60;99.90;;;;;;5102040;28;20476;-59
2022/01/07 00:47:57;;;;;;;;;;;3.60;99.90;;;;;;5100033;28;20393;-59
2022/01/07 00:50:25;;;;;;;10.73;5.10;;;3.50;99.90;;;;;;5106421;28;20011;-58
2022/01/07 00:52:50;;;;;;;13.07;4.63;;;3.50;99.90;;;;;;5096566;28;20356;-58
2022/01/07 00:55:17;;;;;;;14.03;6.07;;;3.50;99.90;;;;;;5063461;28;20122;-59
2022/01/07 00:57:42;;;;;;;;;;;3.50;99.90;;;;;;5098621;28;20032;-59
2022/01/07 01:00:12;;;;;;;14.45;5.15;;;3.50;99.90;;;;;;5099010;28;20347;-59
2022/01/07 01:02:38;;;;;;;11.57;5.35;;;3.40;99.90;;;;;;5100772;28;20038;-58
2022/01/07 01:05:06;;;;;;;12.13;5.47;;;3.40;99.90;;;;;;5104740;28;20443;-57
2022/01/07 01:07:32;;;;;;;13.15;5.35;;;3.40;99.90;;;;;;5103526;28;20047;-58
2022/01/07 01:09:58;;;;;;;14.30;5.30;;;3.40;99.90;;;;;;5105115;28;20035;-58
2022/01/07 01:12:24;;;;;;;18.45;5.85;;;3.40;99.90;;;;;;5100550;28;20040;-59
2022/01/07 01:14:49;;;;;;;10.48;5.28;;;3.40;99.90;;;;;;5102964;28;20102;-59
2022/01/07 01:17:15;;;;;;;10.10;4.63;;;3.40;99.90;;;;;;5105982;28;20068;-57
2022/01/07 01:19:41;;;;;;;12.90;5.73;;;3.40;99.90;;;;;;5095139;28;20040;-59
2022/01/07 01:22:08;;;;;;;16.47;5.10;;;3.30;99.90;;;;;;5100631;28;20047;-58
2022/01/07 01:24:34;;;;;;;14.07;6.03;;;3.30;99.90;;;;;;5084649;28;20316;-59
2022/01/07 01:26:59;;;;;;;17.03;6.20;;;3.30;99.90;;;;;;5111422;28;20063;-59
2022/01/07 01:29:25;;;;;;;14.13;5.60;;;3.20;99.90;;;;;;5094279;28;20028;-58
2022/01/07 01:31:50;;;;;;;8.97;5.40;;;3.20;99.90;;;;;;5105707;28;20035;-59
2022/01/07 01:34:16;;;;;;;11.67;4.60;;;3.10;99.90;;;;;;5095042;28;20028;-59
2022/01/07 01:36:42;;;;;;;18.60;5.43;;;3.10;99.90;;;;;;5104954;28;20040;-58
2022/01/07 01:39:10;;;;;;;14.93;6.78;;;3.10;99.90;;;;;;5100315;28;20036;-59
2022/01/07 01:41:35;;;;;;;20.27;5.88;;;3.10;99.90;;;;;;5101265;28;20067;-59
2022/01/07 01:44:01;;;;;;;18.00;6.83;;;3.00;99.90;;;;;;5100732;28;20112;-59
2022/01/07 01:46:27;;;;;;;16.20;6.43;;;3.00;99.90;;;;;;5085165;28;20473;-59
2022/01/07 01:48:52;;;;;;;15.97;5.50;;;3.00;99.90;;;;;;5108478;28;20040;-58
2022/01/07 01:51:18;;;;;;;18.63;7.13;;;3.00;99.90;;;;;;5095103;28;20044;-58
2022/01/07 01:53:44;;;;;;;19.73;7.47;;;3.00;99.90;;;;;;5101914;28;20040;-59
2022/01/07 01:56:10;;;;;;;16.87;6.00;;;2.90;99.90;;;;;;5105249;28;20048;-59
2022/01/07 01:58:35;;;;;;;16.52;6.53;;;2.90;99.90;;;;;;5104670;28;20035;-58
2022/01/07 02:01:02;;;;;;;17.15;7.57;;;2.90;99.90;;;;;;5099110;28;20043;-58
2022/01/07 02:03:28;;;;;;;17.38;7.07;;;2.80;99.90;;;;;;5104461;28;20024;-58
2022/01/07 02:05:54;;;;;;;18.87;7.07;;;2.80;99.90;;;;;;5096911;28;20089;-59
2022/01/07 02:08:20;;;;;;;18.13;7.18;;;2.80;99.90;;;;;;5104249;28;20093;-59
2022/01/07 02:10:46;;;;;;;16.13;8.32;;;2.70;99.90;;;;;;5106251;28;20496;-58
2022/01/07 02:13:14;;;;;;;18.57;7.50;;;2.70;99.90;;;;;;5102372;28;20044;-59
2022/01/07 02:15:41;;;;;;;18.90;9.35;;;2.70;99.90;;;;;;5100165;28;20036;-58
2022/01/07 02:18:07;;;;;;;19.60;8.70;;;2.70;99.90;;;;;;5083307;28;20040;-59
2022/01/07 02:20:33;;;;;;;24.40;8.85;;;2.70;99.90;;;;;;5096103;28;20512;-59
2022/01/07 02:22:59;;;;;;;30.02;9.77;;;2.70;99.90;;;;;;5102573;28;20024;-59
2022/01/07 02:25:26;;;;;;;20.90;9.07;;;2.70;99.90;;;;;;5102844;28;20032;-57
2022/01/07 02:27:53;;;;;;;23.15;10.10;;;2.60;99.90;;;;;;5103643;28;20043;-58
2022/01/07 02:30:21;;;;;;;;;;;2.60;99.90;;;;;;5101205;28;20032;-59
2022/01/07 02:32:46;;;;;;;;;;;2.60;99.90;;;;;;5101301;28;19916;-59
2022/01/07 02:35:13;;;;;;;19.15;9.45;;;2.60;99.90;;;;;;5108551;28;19923;-58
2022/01/07 02:37:40;;;;;;;18.75;9.90;;;2.60;99.90;;;;;;5079334;28;20511;-58
2022/01/07 02:40:07;;;;;;;19.90;10.50;;;2.60;99.90;;;;;;5083894;28;20481;-58
2022/01/07 02:42:33;;;;;;;19.52;10.98;;;2.60;99.90;;;;;;5097606;28;20081;-58
2022/01/07 02:44:59;;;;;;;25.25;11.30;;;2.60;99.90;;;;;;5100007;28;20032;-58
2022/01/07 02:47:30;;;;;;;22.13;11.67;;;2.60;99.90;;;;;;5100493;28;20443;-58
2022/01/07 02:49:56;;;;;;;26.60;11.57;;;2.60;99.90;;;;;;5083869;28;20052;-58
2022/01/07 02:52:21;;;;;;;28.77;11.87;;;2.50;99.90;;;;;;5092489;28;20097;-58
2022/01/07 02:54:47;;;;;;;32.27;12.87;;;2.50;99.90;;;;;;5099895;28;20135;-59
2022/01/07 02:57:12;;;;;;;21.87;11.13;;;2.50;99.90;;;;;;5103016;28;20119;-58
2022/01/07 02:59:38;;;;;;;21.17;11.83;;;2.50;99.90;;;;;;5094375;28;20071;-58
2022/01/07 03:02:04;;;;;;;26.27;13.20;;;2.50;99.90;;;;;;5094904;28;20036;-58
2022/01/07 03:04:30;;;;;;;21.63;12.32;;;2.50;99.90;;;;;;5083592;28;20542;-58
2022/01/07 03:06:55;;;;;;;24.20;11.60;;;2.50;99.90;;;;;;5098502;28;20127;-59
2022/01/07 03:09:21;;;;;;;18.50;10.63;;;2.50;99.90;;;;;;5098763;28;20039;-59
2022/01/07 03:11:47;;;;;;;23.60;11.30;;;2.50;99.90;;;;;;5098866;28;20097;-58
2022/01/07 03:14:12;;;;;;;22.37;11.67;;;2.50;99.90;;;;;;5098405;28;20437;-59
2022/01/07 03:16:39;;;;;;;20.40;11.93;;;2.50;99.90;;;;;;5102518;28;20076;-59
2022/01/07 03:19:06;;;;;;;24.27;10.70;;;2.50;99.90;;;;;;5087533;28;20488;-59
2022/01/07 03:21:31;;;;;;;18.40;10.93;;;2.50;99.90;;;;;;5084238;28;20377;-59
2022/01/07 03:23:57;;;;;;;26.63;11.87;;;2.50;99.90;;;;;;5103077;28;20038;-58
2022/01/07 03:26:23;;;;;;;20.40;11.77;;;2.50;99.90;;;;;;5097711;28;20107;-58
2022/01/07 03:28:49;;;;;;;22.33;10.70;;;2.50;99.90;;;;;;5097728;28;20046;-59
2022/01/07 03:31:14;;;;;;;19.55;10.77;;;2.50;99.90;;;;;;5079274;28;20073;-58
2022/01/07 03:33:40;;;;;;;20.50;11.53;;;2.50;99.90;;;;;;5099447;28;20036;-58
2022/01/07 03:36:06;;;;;;;18.97;11.70;;;2.50;99.90;;;;;;5097754;28;20047;-58
2022/01/07 03:38:31;;;;;;;18.60;10.77;;;2.50;99.90;;;;;;5098210;28;20646;-59
2022/01/07 03:40:57;;;;;;;19.48;13.00;;;2.50;99.90;;;;;;5102657;28;20044;-57
2022/01/07 03:43:23;;;;;;;19.60;11.50;;;2.50;99.90;;;;;;5094031;28;20036;-57
2022/01/07 03:45:49;;;;;;;19.88;11.00;;;2.50;99.90;;;;;;5100359;28;20451;-58
2022/01/07 03:48:15;;;;;;;17.30;11.15;;;2.50;99.90;;;;;;5097632;28;20024;-58
2022/01/07 03:50:40;;;;;;;18.80;11.53;;;2.50;99.90;;;;;;5099289;28;20352;-57
2022/01/07 03:53:06;;;;;;;20.43;11.53;;;2.50;99.90;;;;;;5101004;28;20039;-59
2022/01/07 03:55:32;;;;;;;21.73;11.88;;;2.50;99.90;;;;;;5097242;28;20083;-59
2022/01/07 03:57:59;;;;;;;21.02;11.40;;;2.60;99.90;;;;;;5100676;28;20040;-57
2022/01/07 04:00:32;;;;;;;24.45;12.50;;;2.60;99.90;;;;;;5100868;28;20397;-58
2022/01/07 04:02:58;;;;;;;20.40;11.40;;;2.60;99.90;;;;;;5098696;28;20036;-58
2022/01/07 04:05:24;;;;;;;21.60;12.10;;;2.60;99.90;;;;;;5099837;28;20036;-58
2022/01/07 04:07:50;;;;;;;17.10;10.90;;;2.70;99.90;;;;;;5077575;28;20047;-57
2022/01/07 04:10:16;;;;;;;22.13;11.60;;;2.70;99.90;;;;;;5103618;28;20399;-58
2022/01/07 04:12:42;;;;;;;20.77;10.82;;;2.70;99.90;;;;;;5097670;28;20048;-59
2022/01/07 04:15:08;;;;;;;19.70;11.52;;;2.70;99.90;;;;;;5104177;28;20066;-59
2022/01/07 04:18:00;;;;;;;17.33;11.38;;;2.70;99.90;;;;;;5096520;28;20036;-58
2022/01/07 04:20:29;;;;;;;17.98;11.02;;;2.70;99.90;;;;;;5079767;28;20085;-59
2022/01/07 04:22:55;;;;;;;15.73;10.55;;;2.80;99.90;;;;;;5100824;28;20523;-59
2022/01/07 04:25:22;;;;;;;20.17;10.65;;;2.80;99.90;;;;;;5095376;28;20039;-59
2022/01/07 04:27:50;;;;;;;18.10;10.48;;;2.80;99.90;;;;;;5106270;28;20446;-59
2022/01/07 04:30:17;;;;;;;14.52;9.07;;;2.80;99.90;;;;;;5075457;28;20106;-59
2022/01/07 04:32:44;;;;;;;22.50;11.98;;;2.80;99.90;;;;;;5099891;28;20531;-58
2022/01/07 04:35:12;;;;;;;20.58;11.23;;;2.80;99.90;;;;;;5101135;28;20048;-59
2022/01/07 04:37:39;;;;;;;19.52;10.82;;;2.80;99.90;;;;;;5105269;28;20044;-59
2022/01/07 04:40:06;;;;;;;;;;;2.80;99.90;;;;;;5101526;28;20040;-59
2022/01/07 04:42:31;;;;;;;15.35;8.57;;;2.80;99.90;;;;;;5101268;28;19915;-59
2022/01/07 04:44:57;;;;;;;13.80;8.53;;;2.80;99.90;;;;;;5105107;28;20508;-58
2022/01/07 04:47:22;;;;;;;15.43;10.03;;;2.90;99.90;;;;;;5104804;28;20039;-59
2022/01/07 04:49:48;;;;;;;14.53;8.67;;;2.90;99.90;;;;;;5100205;28;20047;-58
2022/01/07 04:52:16;;;;;;;19.37;8.87;;;2.90;99.90;;;;;;5092945;28;20040;-59
2022/01/07 04:54:41;;;;;;;15.85;8.90;;;2.80;99.90;;;;;;5088489;28;20555;-58
2022/01/07 04:57:07;;;;;;;18.60;9.70;;;2.90;99.90;;;;;;5100976;28;20039;-59
2022/01/07 04:59:32;;;;;;;16.17;8.47;;;2.80;99.90;;;;;;5100711;28;20104;-59
2022/01/07 05:01:58;;;;;;;18.90;9.23;;;2.80;99.90;;;;;;5103029;28;20028;-58
2022/01/07 05:04:23;;;;;;;12.80;9.43;;;2.80;99.90;;;;;;5102702;28;20036;-58
2022/01/07 05:06:49;;;;;;;13.00;8.57;;;2.80;99.90;;;;;;5085026;28;20088;-58
2022/01/07 05:09:16;;;;;;;12.23;8.50;;;2.80;99.90;;;;;;5095093;28;20355;-59
2022/01/07 05:11:51;;;;;;;13.32;8.00;;;2.80;99.90;;;;;;5105430;28;20040;-58
2022/01/07 05:14:17;;;;;;;15.30;8.55;;;2.80;99.90;;;;;;5105060;28;20085;-59
2022/01/07 05:16:43;;;;;;;11.85;8.10;;;2.80;99.90;;;;;;5105392;28;20419;-59
2022/01/07 05:19:09;;;;;;;15.70;8.10;;;2.80;99.90;;;;;;5088164;28;20048;-58
2022/01/07 05:21:36;;;;;;;11.77;8.73;;;2.80;99.90;;;;;;5100095;28;20372;-59
2022/01/07 05:24:02;;;;;;;;;;;2.80;99.90;;;;;;5106045;28;20320;-59
2022/01/07 05:26:27;;;;;;;10.82;7.60;;;2.80;99.90;;;;;;5090588;28;19915;-59
2022/01/07 05:28:53;;;;;;;13.80;8.03;;;2.80;99.90;;;;;;5098052;28;20558;-59
2022/01/07 05:31:22;;;;;;;14.50;7.67;;;2.80;99.90;;;;;;5105331;28;20036;-59
2022/01/07 05:33:49;;;;;;;13.27;9.10;;;2.70;99.90;;;;;;5103683;28;20651;-59
2022/01/07 05:36:15;;;;;;;;;;;2.80;99.90;;;;;;5101104;28;20036;-59
2022/01/07 05:38:40;;;;;;;13.20;8.13;;;2.70;99.90;;;;;;5101355;28;20350;-59
2022/01/07 05:41:06;;;;;;;12.17;7.83;;;2.70;99.90;;;;;;5100388;28;20032;-58
2022/01/07 05:43:31;;;;;;;12.03;8.90;;;2.70;99.90;;;;;;5082184;28;20046;-59
2022/01/07 05:45:57;;;;;;;10.87;8.63;;;2.70;99.90;;;;;;5102970;28;20040;-58
2022/01/07 05:48:23;;;;;;;11.80;7.07;;;2.80;99.90;;;;;;5101274;28;20036;-58
2022/01/07 05:50:49;;;;;;;9.10;8.20;;;2.70;99.90;;;;;;5100413;28;20183;-58
2022/01/07 05:53:15;;;;;;;13.68;7.40;;;2.80;99.90;;;;;;5104989;28;20213;-58
2022/01/07 05:55:40;;;;;;;12.33;8.70;;;2.80;99.90;;;;;;5101714;28;20129;-58
2022/01/07 05:58:06;;;;;;;8.43;6.47;;;2.80;99.90;;;;;;5098797;28;20040;-59
2022/01/07 06:00:32;;;;;;;8.67;7.23;;;2.80;99.90;;;;;;5107039;28;20396;-59
2022/01/07 06:02:57;;;;;;;12.50;7.13;;;2.80;99.90;;;;;;5098563;28;20036;-58
2022/01/07 06:05:23;;;;;;;10.37;7.03;;;2.80;99.90;;;;;;5091982;28;20036;-59
2022/01/07 06:07:48;;;;;;;12.47;6.47;;;2.80;99.90;;;;;;5074108;28;20047;-59
2022/01/07 06:10:14;;;;;;;10.80;7.03;;;2.80;99.90;;;;;;5092594;28;20169;-57
2022/01/07 06:12:40;;;;;;;7.50;6.27;;;2.80;99.90;;;;;;5073961;28;20040;-57
2022/01/07 06:15:06;;;;;;;7.87;7.07;;;2.90;99.90;;;;;;5074288;28;20408;-59
2022/01/07 06:17:32;;;;;;;8.68;6.80;;;2.90;99.90;;;;;;5084379;28;20046;-58
2022/01/07 06:19:58;;;;;;;9.10;6.77;;;2.90;99.90;;;;;;5100956;28;20047;-59
2022/01/07 06:22:23;;;;;;;9.30;6.60;;;2.90;99.90;;;;;;5081204;28;20031;-59
2022/01/07 06:24:49;;;;;;;10.70;6.57;;;2.90;99.90;;;;;;5085280;28;20036;-59
2022/01/07 06:27:15;;;;;;;12.43;7.10;;;2.90;99.90;;;;;;5087872;28;20463;-58
2022/01/07 06:29:40;;;;;;;11.00;6.67;;;2.90;99.90;;;;;;5105183;28;20534;-58
2022/01/07 06:32:07;;;;;;;11.93;7.00;;;3.00;99.90;;;;;;5101554;28;20044;-58
2022/01/07 06:34:32;;;;;;;;;;;3.00;99.90;;;;;;5103178;28;20142;-58
2022/01/07 06:36:59;;;;;;;15.20;6.78;;;3.00;99.90;;;;;;5099058;28;20333;-58
2022/01/07 06:39:28;;;;;;;8.93;7.95;;;3.00;99.90;;;;;;5104209;28;20036;-57
2022/01/07 06:41:54;;;;;;;7.55;6.75;;;3.00;99.90;;;;;;5099226;28;20077;-58
2022/01/07 06:44:19;;;;;;;9.25;6.18;;;3.00;99.90;;;;;;5104667;28;20501;-59
2022/01/07 06:46:45;;;;;;;9.93;7.57;;;3.00;99.90;;;;;;5108210;28;20036;-59
2022/01/07 06:49:13;;;;;;;11.82;7.03;;;3.00;99.90;;;;;;5107262;28;20035;-59
2022/01/07 06:51:39;;;;;;;15.15;6.13;;;3.10;99.90;;;;;;5095068;28;20055;-58
2022/01/07 06:54:05;;;;;;;7.30;6.55;;;3.10;99.90;;;;;;5098830;28;20503;-59
2022/01/07 06:56:30;;;;;;;9.17;6.30;;;3.10;99.90;;;;;;5086191;28;20050;-59
2022/01/07 06:58:56;;;;;;;9.67;7.63;;;3.10;99.90;;;;;;5095884;28;20039;-59
2022/01/07 07:01:21;;;;;;;9.13;6.90;;;3.00;99.90;;;;;;5098653;28;20287;-58
2022/01/07 07:03:47;;;;;;;10.13;7.07;;;3.10;99.90;;;;;;5098454;28;20040;-58
2022/01/07 07:06:13;;;;;;;11.43;6.93;;;3.10;99.90;;;;;;5103876;28;20039;-58
2022/01/07 07:08:39;;;;;;;9.15;7.30;;;3.10;99.90;;;;;;5097112;28;20043;-58
2022/01/07 07:11:04;;;;;;;11.37;8.13;;;3.00;99.90;;;;;;5098576;28;20071;-58
2022/01/07 07:13:30;;;;;;;9.07;7.03;;;3.00;99.90;;;;;;5099349;28;20039;-58
2022/01/07 07:15:56;;;;;;;13.40;7.13;;;3.00;99.90;;;;;;5099751;28;20039;-58
2022/01/07 07:18:21;;;;;;;10.53;7.50;;;3.00;99.90;;;;;;5102932;28;20515;-58
2022/01/07 07:20:47;;;;;;;13.10;8.63;;;3.00;99.90;;;;;;5100169;28;20543;-59
2022/01/07 07:23:12;;;;;;;11.20;8.48;;;3.00;99.90;;;;;;5098292;28;20032;-59
2022/01/07 07:25:39;;;;;;;11.63;8.90;;;3.10;99.90;;;;;;5098911;28;20043;-59
2022/01/07 07:28:04;;;;;;;14.50;10.30;;;3.10;99.90;;;;;;5082806;28;20035;-59
2022/01/07 07:30:35;;;;;;;14.27;9.60;;;3.10;99.90;;;;;;5100385;28;20050;-58
2022/01/07 07:33:28;;;;;;;9.93;7.97;;;3.10;99.90;;;;;;5062966;28;20055;-59
2022/01/07 07:38:33;;;;;;;14.55;10.50;;;3.10;99.90;;;;;;5087794;28;20036;-59
2022/01/07 07:40:58;;;;;;;14.45;11.15;;;3.10;99.90;;;;;;5095269;28;20489;-58
2022/01/07 07:43:24;;;;;;;12.97;10.73;;;3.10;99.90;;;;;;5101725;28;20047;-59
2022/01/07 07:45:49;;;;;;;20.23;11.30;;;3.20;99.90;;;;;;5095070;28;20035;-59
2022/01/07 07:48:15;;;;;;;17.55;11.20;;;3.20;99.90;;;;;;5097644;28;20111;-59
2022/01/07 07:50:41;;;;;;;14.27;11.83;;;3.20;99.90;;;;;;5105784;28;20085;-58
2022/01/07 07:53:06;;;;;;;18.57;12.20;;;3.20;99.90;;;;;;5095732;28;20078;-59
2022/01/07 07:55:32;;;;;;;20.83;11.77;;;3.20;99.90;;;;;;5089786;28;20040;-59
2022/01/07 07:57:58;;;;;;;16.10;12.48;;;3.20;99.90;;;;;;5090347;28;20040;-59
2022/01/07 08:00:23;;;;;;;15.07;11.57;;;3.20;99.90;;;;;;5071495;28;20515;-59
2022/01/07 08:02:49;;;;;;;20.60;13.73;;;3.30;99.90;;;;;;5090295;28;20044;-59
2022/01/07 08:05:15;;;;;;;18.40;12.68;;;3.30;99.90;;;;;;5072710;28;20549;-59
2022/01/07 08:07:40;;;;;;;18.47;13.53;;;3.30;99.90;;;;;;5091734;28;20093;-59
2022/01/07 08:10:07;;;;;;;25.07;14.90;;;3.30;99.90;;;;;;5105151;28;20063;-58
2022/01/07 08:18:01;;;;;;;26.17;15.27;;;3.40;99.90;;;;;;5076085;28;20060;-60
2022/01/07 08:20:26;;;;;;;23.57;15.27;;;3.50;99.90;;;;;;5093924;28;20048;-59
2022/01/07 08:22:52;;;;;;;22.03;15.77;;;3.50;99.90;;;;;;5055935;28;20047;-59
2022/01/07 08:25:18;;;;;;;23.70;15.60;;;3.60;99.90;;;;;;5081416;28;20270;-59
2022/01/07 08:27:43;;;;;;;26.90;16.87;;;3.60;99.90;;;;;;5091987;28;20032;-58
2022/01/07 08:30:14;;;;;;;25.20;16.10;;;3.60;99.90;;;;;;5093647;28;20370;-59
2022/01/07 08:35:25;;;;;;;25.33;17.50;;;3.70;99.90;;;;;;5075224;28;20664;-58
2022/01/07 08:37:51;;;;;;;27.67;16.55;;;3.70;99.90;;;;;;5094066;28;20040;-59
2022/01/07 08:40:16;;;;;;;25.67;16.83;;;3.80;99.90;;;;;;5094320;28;20047;-59
2022/01/07 08:42:42;;;;;;;23.00;16.70;;;3.80;99.90;;;;;;5091200;28;20039;-58
2022/01/07 08:45:08;;;;;;;25.43;16.83;;;3.80;99.90;;;;;;5100016;28;20063;-58
2022/01/07 08:47:33;;;;;;;24.13;16.52;;;3.90;99.90;;;;;;5087428;28;20417;-59
2022/01/07 08:49:59;;;;;;;21.87;17.17;;;3.90;99.90;;;;;;5078200;28;20112;-59
2022/01/07 08:52:24;;;;;;;25.63;17.63;;;4.00;99.90;;;;;;5080810;28;20043;-59
2022/01/07 08:54:50;;;;;;;24.97;17.00;;;4.00;99.90;;;;;;5080977;28;20036;-58
2022/01/07 08:57:18;;;;;;;31.50;16.73;;;4.00;99.90;;;;;;5072582;28;20032;-59
2022/01/07 08:59:43;;;;;;;33.15;19.42;;;4.10;99.90;;;;;;5085263;28;20452;-59
2022/01/07 09:02:09;;;;;;;31.33;18.13;;;4.10;99.90;;;;;;5077470;28;20035;-60
2022/01/07 09:04:34;;;;;;;32.43;18.40;;;4.10;99.90;;;;;;5080931;28;20070;-58
2022/01/07 09:07:00;;;;;;;26.33;17.67;;;4.20;99.90;;;;;;5057060;28;20037;-60
2022/01/07 09:09:26;;;;;;;27.73;18.67;;;4.20;99.90;;;;;;5076422;28;20407;-58
2022/01/07 09:11:52;;;;;;;28.63;17.10;;;4.30;99.90;;;;;;5083388;28;20049;-59
2022/01/07 09:14:18;;;;;;;28.00;17.25;;;4.30;99.90;;;;;;5060098;28;20037;-59
2022/01/07 09:16:43;;;;;;;29.93;18.00;;;4.30;99.90;;;;;;5078788;28;20043;-59
2022/01/07 09:19:09;;;;;;;25.90;18.97;;;4.30;99.90;;;;;;5076664;28;20072;-59
2022/01/07 09:21:34;;;;;;;27.23;18.77;;;4.40;99.90;;;;;;5078334;28;20039;-58
2022/01/07 09:24:00;;;;;;;32.10;19.17;;;4.40;99.90;;;;;;5079885;28;20048;-59
2022/01/07 09:26:25;;;;;;;35.27;21.13;;;4.50;99.90;;;;;;5075308;28;20513;-59
2022/01/07 09:28:51;;;;;;;30.17;19.37;;;4.50;99.90;;;;;;5079542;28;20033;-59
2022/01/07 09:31:17;;;;;;;28.90;21.27;;;4.60;99.90;;;;;;5042703;28;20041;-59
2022/01/07 09:33:43;;;;;;;31.83;19.48;;;4.60;99.90;;;;;;5075656;28;20037;-58
2022/01/07 09:36:09;;;;;;;25.70;18.40;;;4.70;99.90;;;;;;5079318;28;20055;-59
2022/01/07 09:38:34;;;;;;;31.73;19.13;;;4.70;99.90;;;;;;5075439;28;20116;-60
2022/01/07 09:41:00;;;;;;;29.17;21.77;;;4.70;99.90;;;;;;5079812;28;20450;-59
2022/01/07 09:43:25;;;;;;;33.57;20.63;;;4.70;99.90;;;;;;5078919;28;20032;-60
2022/01/07 09:45:51;;;;;;;23.67;17.07;;;4.80;99.90;;;;;;5067949;28;20074;-59
2022/01/07 09:48:17;;;;;;;24.47;17.67;;;4.90;99.90;;;;;;5073091;28;20450;-59
2022/01/07 09:50:42;;;;;;;28.83;16.67;;;5.00;99.90;;;;;;5081617;28;20044;-59
2022/01/07 09:53:15;;;;;;;28.00;18.80;;;5.10;99.90;;;;;;5073938;28;20040;-58
2022/01/07 09:55:44;;;;;;;22.45;16.10;;;5.20;99.90;;;;;;5080727;28;20075;-59
2022/01/07 09:58:13;;;;;;;24.13;15.75;;;5.30;99.90;;;;;;5093228;28;20048;-59
2022/01/07 10:00:44;;;;;;;23.63;15.27;;;5.30;99.90;;;;;;5086172;28;20521;-58
2022/01/07 10:03:17;;;;;;;28.55;16.50;;;5.30;99.90;;;;;;5090909;28;20073;-59
2022/01/07 10:05:52;;;;;;;21.13;15.15;;;5.20;99.90;;;;;;5092318;28;20630;-58
2022/01/07 10:08:28;;;;;;;23.63;16.67;;;5.10;99.90;;;;;;5096237;28;20493;-59
2022/01/07 10:11:14;;;;;;;25.60;16.48;;;5.10;99.90;;;;;;5091462;28;20037;-58
2022/01/07 10:13:48;;;;;;;20.27;14.75;;;5.10;99.90;;;;;;5071126;28;20089;-57
2022/01/07 10:16:16;;;;;;;27.15;15.20;;;5.00;99.90;;;;;;5089512;28;20403;-58
2022/01/07 10:18:43;;;;;;;30.70;15.75;;;5.00;99.90;;;;;;5088403;28;20036;-58
2022/01/07 10:21:09;;;;;;;32.85;17.65;;;5.00;99.90;;;;;;5087911;28;20051;-58
2022/01/07 10:23:35;;;;;;;;;;;5.00;99.90;;;;;;5092050;28;20024;-58
2022/01/07 10:26:00;;;;;;;26.20;16.55;;;5.00;99.90;;;;;;5090247;28;19927;-59
2022/01/07 10:28:34;;;;;;;29.00;17.03;;;5.00;99.90;;;;;;5076111;28;20046;-58
2022/01/07 10:31:00;;;;;;;28.15;16.50;;;4.90;99.90;;;;;;5090621;28;20420;-57
2022/01/07 10:33:40;;;;;;;27.67;16.38;;;4.90;99.90;;;;;;5092861;28;20039;-58
2022/01/07 10:36:06;;;;;;;28.02;18.35;;;4.90;99.90;;;;;;5091405;28;20134;-58
2022/01/07 10:38:32;;;;;;;26.93;16.53;;;4.90;99.90;;;;;;5091314;28;20531;-59
2022/01/07 10:41:01;;;;;;;31.92;18.20;;;5.00;99.90;;;;;;5092128;28;20040;-60
2022/01/07 10:43:36;;;;;;;27.48;17.00;;;5.00;99.90;;;;;;5093530;28;20032;-59
2022/01/07 10:46:11;;;;;;;25.15;18.58;;;5.00;99.90;;;;;;5090653;28;20032;-58
2022/01/07 10:48:42;;;;;;;23.98;17.60;;;5.00;99.90;;;;;;5087244;28;20391;-57
2022/01/07 10:51:10;;;;;;;25.55;14.95;;;5.00;99.90;;;;;;5074960;28;20400;-59
2022/01/07 10:53:37;;;;;;;22.17;16.90;;;5.00;99.90;;;;;;5089175;28;20539;-59
2022/01/07 10:56:03;;;;;;;31.08;17.98;;;5.00;99.90;;;;;;5088638;28;20103;-58
2022/01/07 10:58:39;;;;;;;31.87;18.53;;;5.00;99.90;;;;;;5094537;28;20119;-59
2022/01/07 11:01:04;;;;;;;33.80;19.80;;;5.00;99.90;;;;;;5068803;28;20552;-60
2022/01/07 11:03:33;;;;;;;30.67;19.87;;;5.00;99.90;;;;;;5091048;28;20080;-58
2022/01/07 11:06:01;;;;;;;31.67;19.73;;;5.10;99.90;;;;;;5090286;28;20036;-58
2022/01/07 11:08:27;;;;;;;29.20;17.90;;;5.10;99.90;;;;;;5094160;28;20043;-58
2022/01/07 11:10:52;;;;;;;33.63;19.03;;;5.10;99.90;;;;;;5085793;28;20044;-58
2022/01/07 11:13:19;;;;;;;34.67;19.15;;;5.10;99.90;;;;;;5088023;28;20044;-58
2022/01/07 11:15:44;;;;;;;30.98;19.45;;;5.20;99.90;;;;;;5084656;28;20048;-57
2022/01/07 11:18:10;;;;;;;24.87;17.10;;;5.20;99.90;;;;;;5088370;28;20046;-59
2022/01/07 11:20:35;;;;;;;22.13;17.17;;;5.30;99.90;;;;;;5089370;28;20040;-59
2022/01/07 11:23:01;;;;;;;23.93;15.23;;;5.80;99.90;;;;;;5087966;28;20032;-58
2022/01/07 11:25:32;;;;;;;19.93;15.93;;;6.30;99.90;;;;;;5090367;28;20043;-58
2022/01/07 11:27:59;;;;;;;19.63;14.93;;;6.50;99.90;;;;;;5083499;28;20043;-59
2022/01/07 11:30:32;;;;;;;24.70;13.57;;;6.60;99.90;;;;;;5070451;28;20048;-58
2022/01/07 11:33:00;;;;;;;17.35;11.15;;;6.90;99.90;;;;;;5087589;28;20539;-59
2022/01/07 11:35:26;;;;;;;16.25;10.13;;;7.60;99.90;;;;;;5072577;28;20079;-59
2022/01/07 11:37:57;;;;;;;17.33;12.05;;;8.10;99.90;;;;;;5063494;28;20032;-59
2022/01/07 11:40:28;;;;;;;22.42;10.95;;;8.10;99.90;;;;;;5083089;28;20089;-59
2022/01/07 11:42:55;;;;;;;15.13;11.00;;;7.70;99.90;;;;;;5084553;28;20036;-59
2022/01/07 11:45:31;;;;;;;17.70;10.65;;;7.40;99.90;;;;;;5089932;28;20088;-58
2022/01/07 11:48:11;;;;;;;15.13;9.75;;;7.10;99.90;;;;;;5084975;28;20035;-58
2022/01/07 11:50:55;;;;;;;11.63;7.88;;;6.70;99.90;;;;;;5087183;28;20653;-57
2022/01/07 11:53:49;;;;;;;14.57;8.48;;;6.40;99.90;;;;;;5069941;28;20123;-58
2022/01/07 11:56:23;;;;;;;15.15;8.43;;;6.20;99.90;;;;;;5071739;28;20581;-58
2022/01/07 11:58:51;;;;;;;10.40;6.85;;;6.00;99.90;;;;;;5071504;28;20044;-59
2022/01/07 12:01:23;;;;;;;13.20;4.82;;;5.80;99.90;;;;;;5056869;28;20075;-59
2022/01/07 12:03:49;;;;;;;11.18;5.38;;;5.60;99.90;;;;;;5082141;28;20071;-59
2022/01/07 12:06:20;;;;;;;5.20;2.38;;;5.40;99.90;;;;;;5073465;28;20028;-58
2022/01/07 12:08:58;;;;;;;7.78;1.70;;;5.20;99.90;;;;;;5074857;28;20041;-58
2022/01/07 12:11:35;;;;;;;4.25;0.95;;;5.00;99.90;;;;;;5060732;28;20502;-59
2022/01/07 12:14:03;;;;;;;9.65;1.95;;;4.90;99.90;;;;;;5077326;28;20039;-59
2022/01/07 12:16:31;;;;;;;9.13;1.38;;;4.80;99.90;;;;;;5076132;28;20040;-58
2022/01/07 12:19:12;;;;;;;7.47;0.75;;;4.70;99.90;;;;;;5078326;28;20566;-59
2022/01/07 12:21:41;;;;;;;15.38;1.75;;;4.60;99.90;;;;;;5083811;28;20127;-58
2022/01/07 12:24:12;;;;;;;2.08;0.60;;;4.60;99.90;;;;;;5070590;28;20111;-59
2022/01/07 12:26:38;;;;;;;4.53;0.43;;;4.50;99.90;;;;;;5069227;28;20047;-58
2022/01/07 12:29:04;;;;;;;2.83;0.25;;;4.40;99.90;;;;;;5084189;28;20493;-58
2022/01/07 12:31:30;;;;;;;2.17;0.60;;;4.30;99.90;;;;;;5077707;28;20064;-59
2022/01/07 12:33:59;;;;;;;4.35;0.95;;;4.20;99.90;;;;;;5073921;28;20075;-59
2022/01/07 12:36:30;;;;;;;5.90;0.40;;;4.20;99.90;;;;;;5073844;28;20043;-58
2022/01/07 12:39:05;;;;;;;3.40;0.45;;;4.10;99.90;;;;;;5072354;28;20082;-59
2022/01/07 12:41:30;;;;;;;3.50;0.70;;;4.10;99.90;;;;;;5077197;28;20040;-59
2022/01/07 12:44:10;;;;;;;4.73;0.43;;;4.10;99.90;;;;;;5083000;28;20527;-58
2022/01/07 12:46:36;;;;;;;5.45;0.50;;;4.10;99.90;;;;;;5072930;28;20121;-58
2022/01/07 12:49:02;;;;;;;6.30;0.85;;;4.10;99.90;;;;;;5058573;28;20538;-59
2022/01/07 12:51:31;;;;;;;5.90;0.73;;;4.10;99.90;;;;;;5073711;28;20378;-58
2022/01/07 12:53:59;;;;;;;9.43;0.60;;;4.10;99.90;;;;;;5085447;28;20032;-59
2022/01/07 12:56:30;;;;;;;6.15;0.40;;;4.10;99.90;;;;;;5070562;28;20036;-58